sensor_id;sensor_type;location;lat;lon;timestamp;pressure;altitude;pressure_sealevel;temperature;humidity
11190;BME280;5651;50.926;4.718;2023-03-12T00:01:15;100950.38;;;4.48;72.06
11190;BME280;5651;50.926;4.718;2023-03-12T00:03:41;100951.94;;;4.41;71.79
11190;BME280;5651;50.926;4.718;2023-03-12T00:06:07;100950.03;;;4.32;72.88
11190;BME280;5651;50.926;4.718;2023-03-12T00:08:33;100948.31;;;4.33;72.77
11190;BME280;5651;50.926;4.718;2023-03-12T00:10:58;100940.53;;;4.31;72.94
11190;BME280;5651;50.926;4.718;2023-03-12T00:13:24;100939.59;;;4.27;74.04
11190;BME280;5651;50.926;4.718;2023-03-12T00:15:50;100931.97;;;4.32;73.70
11190;BME280;5651;50.926;4.718;2023-03-12T00:18:15;100926.03;;;4.36;73.57
11190;BME280;5651;50.926;4.718;2023-03-12T00:20:41;100925.94;;;4.32;73.87
11190;BME280;5651;50.926;4.718;2023-03-12T00:23:07;100923.53;;;4.39;73.49
11190;BME280;5651;50.926;4.718;2023-03-12T00:25:33;100926.72;;;4.27;74.22
11190;BME280;5651;50.926;4.718;2023-03-12T00:27:59;100917.34;;;4.33;75.02
11190;BME280;5651;50.926;4.718;2023-03-12T00:30:24;100913.13;;;4.36;74.06
11190;BME280;5651;50.926;4.718;2023-03-12T00:32:52;100922.47;;;4.30;74.68
11190;BME280;5651;50.926;4.718;2023-03-12T00:35:18;100924.94;;;4.25;75.59
11190;BME280;5651;50.926;4.718;2023-03-12T00:37:44;100916.44;;;4.31;74.85
11190;BME280;5651;50.926;4.718;2023-03-12T00:40:10;100916.53;;;4.34;74.57
11190;BME280;5651;50.926;4.718;2023-03-12T00:42:36;100915.69;;;4.35;74.82
11190;BME280;5651;50.926;4.718;2023-03-12T00:45:02;100911.44;;;4.37;74.70
11190;BME280;5651;50.926;4.718;2023-03-12T00:47:28;100903.72;;;4.38;73.97
11190;BME280;5651;50.926;4.718;2023-03-12T00:49:53;100900.31;;;4.39;74.51
11190;BME280;5651;50.926;4.718;2023-03-12T00:52:19;100892.63;;;4.42;74.46
11190;BME280;5651;50.926;4.718;2023-03-12T00:54:45;100892.56;;;4.39;74.64
11190;BME280;5651;50.926;4.718;2023-03-12T00:57:10;100896.81;;;4.37;75.02
11190;BME280;5651;50.926;4.718;2023-03-12T00:59:36;100888.28;;;4.40;74.39
11190;BME280;5651;50.926;4.718;2023-03-12T01:02:06;100896.84;;;4.39;74.83
11190;BME280;5651;50.926;4.718;2023-03-12T01:04:32;100899.38;;;4.36;75.99
11190;BME280;5651;50.926;4.718;2023-03-12T01:06:57;100884.84;;;4.39;75.30
11190;BME280;5651;50.926;4.718;2023-03-12T01:09:23;100892.69;;;4.44;75.50
11190;BME280;5651;50.926;4.718;2023-03-12T01:11:49;100890.19;;;4.49;74.91
11190;BME280;5651;50.926;4.718;2023-03-12T01:14:15;100895.34;;;4.49;75.16
11190;BME280;5651;50.926;4.718;2023-03-12T01:16:41;100890.03;;;4.42;75.90
11190;BME280;5651;50.926;4.718;2023-03-12T01:19:06;100882.41;;;4.47;75.67
11190;BME280;5651;50.926;4.718;2023-03-12T01:21:32;100880.72;;;4.48;75.95
11190;BME280;5651;50.926;4.718;2023-03-12T01:23:58;100888.59;;;4.55;75.66
11190;BME280;5651;50.926;4.718;2023-03-12T01:26:24;100885.91;;;4.49;76.55
11190;BME280;5651;50.926;4.718;2023-03-12T01:28:49;100894.59;;;4.54;75.96
11190;BME280;5651;50.926;4.718;2023-03-12T01:31:17;100894.88;;;4.67;76.17
11190;BME280;5651;50.926;4.718;2023-03-12T01:33:50;100899.94;;;4.62;76.68
11190;BME280;5651;50.926;4.718;2023-03-12T01:36:22;100880.84;;;4.55;76.30
11190;BME280;5651;50.926;4.718;2023-03-12T01:38:53;100871.34;;;4.53;78.21
11190;BME280;5651;50.926;4.718;2023-03-12T01:41:20;100884.44;;;4.62;77.78
11190;BME280;5651;50.926;4.718;2023-03-12T01:43:47;100881.88;;;4.62;79.04
11190;BME280;5651;50.926;4.718;2023-03-12T01:46:29;100880.13;;;4.61;79.08
11190;BME280;5651;50.926;4.718;2023-03-12T01:51:32;100855.88;;;4.53;82.45
11190;BME280;5651;50.926;4.718;2023-03-12T01:54:01;100855.88;;;4.54;83.00
11190;BME280;5651;50.926;4.718;2023-03-12T01:56:32;100861.19;;;4.60;81.71
11190;BME280;5651;50.926;4.718;2023-03-12T01:59:02;100854.53;;;4.72;81.36
11190;BME280;5651;50.926;4.718;2023-03-12T02:01:30;100852.78;;;4.71;81.01
11190;BME280;5651;50.926;4.718;2023-03-12T02:03:57;100845.81;;;4.67;81.51
11190;BME280;5651;50.926;4.718;2023-03-12T02:06:38;100848.50;;;4.71;82.17
11190;BME280;5651;50.926;4.718;2023-03-12T02:09:08;100845.03;;;4.71;82.48
11190;BME280;5651;50.926;4.718;2023-03-12T02:11:34;100844.06;;;4.64;83.37
11190;BME280;5651;50.926;4.718;2023-03-12T02:14:00;100831.81;;;4.54;85.57
11190;BME280;5651;50.926;4.718;2023-03-12T02:16:26;100825.84;;;4.58;84.95
11190;BME280;5651;50.926;4.718;2023-03-12T02:18:53;100830.19;;;4.59;84.69
11190;BME280;5651;50.926;4.718;2023-03-12T02:21:27;100821.69;;;4.65;84.99
11190;BME280;5651;50.926;4.718;2023-03-12T02:24:06;100813.00;;;4.59;85.66
11190;BME280;5651;50.926;4.718;2023-03-12T02:26:37;100809.34;;;4.50;89.03
11190;BME280;5651;50.926;4.718;2023-03-12T02:29:04;100801.56;;;4.47;88.67
11190;BME280;5651;50.926;4.718;2023-03-12T02:31:36;100801.69;;;4.53;87.16
11190;BME280;5651;50.926;4.718;2023-03-12T02:34:03;100797.31;;;4.49;88.56
11190;BME280;5651;50.926;4.718;2023-03-12T02:36:29;100787.78;;;4.46;89.14
11190;BME280;5651;50.926;4.718;2023-03-12T02:38:55;100781.97;;;4.58;86.62
11190;BME280;5651;50.926;4.718;2023-03-12T02:41:39;100788.75;;;4.51;87.02
11190;BME280;5651;50.926;4.718;2023-03-12T02:44:19;100781.94;;;4.55;87.54
11190;BME280;5651;50.926;4.718;2023-03-12T02:46:47;100786.09;;;4.48;87.79
11190;BME280;5651;50.926;4.718;2023-03-12T02:49:14;100777.44;;;4.44;88.21
11190;BME280;5651;50.926;4.718;2023-03-12T02:51:41;100786.19;;;4.51;86.45
11190;BME280;5651;50.926;4.718;2023-03-12T02:54:08;100774.03;;;4.46;87.72
11190;BME280;5651;50.926;4.718;2023-03-12T02:56:34;100775.03;;;4.54;87.13
11190;BME280;5651;50.926;4.718;2023-03-12T02:59:00;100775.06;;;4.55;86.37
11190;BME280;5651;50.926;4.718;2023-03-12T03:01:25;100768.22;;;4.57;85.67
11190;BME280;5651;50.926;4.718;2023-03-12T03:03:51;100753.38;;;4.44;88.05
11190;BME280;5651;50.926;4.718;2023-03-12T03:06:19;100739.47;;;4.39;89.23
11190;BME280;5651;50.926;4.718;2023-03-12T03:08:45;100750.66;;;4.38;88.94
11190;BME280;5651;50.926;4.718;2023-03-12T03:11:11;100761.00;;;4.38;88.45
11190;BME280;5651;50.926;4.718;2023-03-12T03:13:37;100759.16;;;4.32;89.95
11190;BME280;5651;50.926;4.718;2023-03-12T03:16:04;100768.66;;;4.36;88.65
11190;BME280;5651;50.926;4.718;2023-03-12T03:18:30;100771.16;;;4.32;89.53
11190;BME280;5651;50.926;4.718;2023-03-12T03:21:00;100780.94;;;4.47;86.29
11190;BME280;5651;50.926;4.718;2023-03-12T03:23:26;100771.44;;;4.46;86.82
11190;BME280;5651;50.926;4.718;2023-03-12T03:25:52;100763.59;;;4.39;88.35
11190;BME280;5651;50.926;4.718;2023-03-12T03:28:19;100758.44;;;4.39;88.55
11190;BME280;5651;50.926;4.718;2023-03-12T03:30:45;100769.69;;;4.43;87.42
11190;BME280;5651;50.926;4.718;2023-03-12T03:33:11;100760.38;;;4.53;86.02
11190;BME280;5651;50.926;4.718;2023-03-12T03:35:37;100748.28;;;4.49;85.96
11190;BME280;5651;50.926;4.718;2023-03-12T03:38:03;100753.19;;;4.36;89.43
11190;BME280;5651;50.926;4.718;2023-03-12T03:40:29;100756.66;;;4.37;89.47
11190;BME280;5651;50.926;4.718;2023-03-12T03:42:57;100737.91;;;4.46;87.62
11190;BME280;5651;50.926;4.718;2023-03-12T03:45:22;100736.22;;;4.48;86.92
11190;BME280;5651;50.926;4.718;2023-03-12T03:47:49;100743.25;;;4.55;86.25
11190;BME280;5651;50.926;4.718;2023-03-12T03:50:15;100725.81;;;4.41;89.67
11190;BME280;5651;50.926;4.718;2023-03-12T03:52:41;100734.25;;;4.34;91.35
11190;BME280;5651;50.926;4.718;2023-03-12T03:55:07;100721.59;;;4.48;89.00
11190;BME280;5651;50.926;4.718;2023-03-12T03:57:32;100715.50;;;4.44;89.58
11190;BME280;5651;50.926;4.718;2023-03-12T03:59:58;100726.56;;;4.37;89.86
11190;BME280;5651;50.926;4.718;2023-03-12T04:02:26;100729.31;;;4.47;88.80
11190;BME280;5651;50.926;4.718;2023-03-12T04:04:56;100729.25;;;4.43;89.20
11190;BME280;5651;50.926;4.718;2023-03-12T04:07:22;100740.41;;;4.42;90.40
11190;BME280;5651;50.926;4.718;2023-03-12T04:09:48;100743.84;;;4.41;89.96
11190;BME280;5651;50.926;4.718;2023-03-12T04:12:14;100736.13;;;4.41;90.28
11190;BME280;5651;50.926;4.718;2023-03-12T04:14:41;100729.22;;;4.40;91.55
11190;BME280;5651;50.926;4.718;2023-03-12T04:17:07;100721.41;;;4.39;92.77
11190;BME280;5651;50.926;4.718;2023-03-12T04:19:33;100730.97;;;4.41;92.18
11190;BME280;5651;50.926;4.718;2023-03-12T04:21:59;100729.31;;;4.47;92.04
11190;BME280;5651;50.926;4.718;2023-03-12T04:24:24;100725.13;;;4.53;90.28
11190;BME280;5651;50.926;4.718;2023-03-12T04:26:50;100726.94;;;4.57;89.99
11190;BME280;5651;50.926;4.718;2023-03-12T04:29:17;100721.16;;;4.72;88.97
11190;BME280;5651;50.926;4.718;2023-03-12T04:31:43;100719.19;;;4.56;91.66
11190;BME280;5651;50.926;4.718;2023-03-12T04:34:09;100716.44;;;4.48;94.29
11190;BME280;5651;50.926;4.718;2023-03-12T04:36:35;100713.03;;;4.51;93.18
11190;BME280;5651;50.926;4.718;2023-03-12T04:39:01;100715.53;;;4.46;95.16
11190;BME280;5651;50.926;4.718;2023-03-12T04:41:27;100711.31;;;4.50;94.69
11190;BME280;5651;50.926;4.718;2023-03-12T04:43:52;100716.69;;;4.62;93.74
11190;BME280;5651;50.926;4.718;2023-03-12T04:46:18;100710.59;;;4.57;95.17
11190;BME280;5651;50.926;4.718;2023-03-12T04:48:44;100701.97;;;4.56;94.58
11190;BME280;5651;50.926;4.718;2023-03-12T04:51:10;100695.94;;;4.56;96.12
11190;BME280;5651;50.926;4.718;2023-03-12T04:53:35;100703.81;;;4.64;94.83
11190;BME280;5651;50.926;4.718;2023-03-12T04:56:01;100690.81;;;4.59;95.87
11190;BME280;5651;50.926;4.718;2023-03-12T04:58:27;100691.72;;;4.61;95.91
11190;BME280;5651;50.926;4.718;2023-03-12T05:00:53;100686.66;;;4.66;94.99
11190;BME280;5651;50.926;4.718;2023-03-12T05:03:19;100681.41;;;4.59;97.13
11190;BME280;5651;50.926;4.718;2023-03-12T05:05:44;100685.75;;;4.65;96.35
11190;BME280;5651;50.926;4.718;2023-03-12T05:08:11;100681.59;;;4.72;95.90
11190;BME280;5651;50.926;4.718;2023-03-12T05:10:37;100672.06;;;4.68;96.39
11190;BME280;5651;50.926;4.718;2023-03-12T05:13:02;100686.75;;;4.70;95.85
11190;BME280;5651;50.926;4.718;2023-03-12T05:15:28;100674.66;;;4.69;96.94
11190;BME280;5651;50.926;4.718;2023-03-12T05:17:54;100677.25;;;4.71;97.20
11190;BME280;5651;50.926;4.718;2023-03-12T05:20:20;100685.06;;;4.74;97.19
11190;BME280;5651;50.926;4.718;2023-03-12T05:22:46;100679.00;;;4.70;99.36
11190;BME280;5651;50.926;4.718;2023-03-12T05:25:12;100662.66;;;4.71;99.48
11190;BME280;5651;50.926;4.718;2023-03-12T05:27:38;100670.47;;;4.76;97.81
11190;BME280;5651;50.926;4.718;2023-03-12T05:30:05;100668.78;;;4.78;98.93
11190;BME280;5651;50.926;4.718;2023-03-12T05:32:30;100675.78;;;4.85;98.78
11190;BME280;5651;50.926;4.718;2023-03-12T05:34:56;100666.44;;;4.92;96.81
11190;BME280;5651;50.926;4.718;2023-03-12T05:37:22;100684.50;;;4.94;97.04
11190;BME280;5651;50.926;4.718;2023-03-12T05:39:48;100685.59;;;5.08;95.14
11190;BME280;5651;50.926;4.718;2023-03-12T05:42:14;100681.09;;;4.96;99.99
11190;BME280;5651;50.926;4.718;2023-03-12T05:44:41;100686.50;;;5.12;98.34
11190;BME280;5651;50.926;4.718;2023-03-12T05:47:07;100680.41;;;5.05;100.00
11190;BME280;5651;50.926;4.718;2023-03-12T05:49:33;100675.19;;;5.02;100.00
11190;BME280;5651;50.926;4.718;2023-03-12T05:51:59;100679.44;;;4.98;100.00
11190;BME280;5651;50.926;4.718;2023-03-12T05:54:25;100676.00;;;5.01;100.00
11190;BME280;5651;50.926;4.718;2023-03-12T05:56:51;100681.41;;;5.15;100.00
11190;BME280;5651;50.926;4.718;2023-03-12T05:59:17;100680.66;;;5.22;100.00
11190;BME280;5651;50.926;4.718;2023-03-12T06:01:43;100679.75;;;5.21;100.00
11190;BME280;5651;50.926;4.718;2023-03-12T06:04:09;100684.31;;;5.38;100.00
11190;BME280;5651;50.926;4.718;2023-03-12T06:06:36;100686.06;;;5.40;100.00
11190;BME280;5651;50.926;4.718;2023-03-12T06:09:03;100684.22;;;5.32;100.00
11190;BME280;5651;50.926;4.718;2023-03-12T06:11:29;100681.06;;;5.53;100.00
11190;BME280;5651;50.926;4.718;2023-03-12T06:13:56;100674.25;;;5.58;99.93
11190;BME280;5651;50.926;4.718;2023-03-12T06:16:25;100668.03;;;5.45;100.00
11190;BME280;5651;50.926;4.718;2023-03-12T06:18:56;100671.66;;;5.57;100.00
11190;BME280;5651;50.926;4.718;2023-03-12T06:21:25;100672.41;;;5.49;100.00
11190;BME280;5651;50.926;4.718;2023-03-12T06:23:52;100664.75;;;5.57;100.00
11190;BME280;5651;50.926;4.718;2023-03-12T06:26:19;100670.88;;;5.62;100.00
11190;BME280;5651;50.926;4.718;2023-03-12T06:28:46;100663.31;;;5.81;100.00
11190;BME280;5651;50.926;4.718;2023-03-12T06:31:13;100664.16;;;5.77;100.00
11190;BME280;5651;50.926;4.718;2023-03-12T06:33:39;100667.69;;;5.86;100.00
11190;BME280;5651;50.926;4.718;2023-03-12T06:36:06;100663.25;;;5.75;100.00
11190;BME280;5651;50.926;4.718;2023-03-12T06:38:33;100667.66;;;5.82;100.00
11190;BME280;5651;50.926;4.718;2023-03-12T06:41:04;100664.22;;;5.83;100.00
11190;BME280;5651;50.926;4.718;2023-03-12T06:43:31;100657.53;;;5.99;100.00
11190;BME280;5651;50.926;4.718;2023-03-12T06:45:59;100662.81;;;6.10;100.00
11190;BME280;5651;50.926;4.718;2023-03-12T06:48:26;100666.28;;;6.12;100.00
11190;BME280;5651;50.926;4.718;2023-03-12T06:50:52;100659.59;;;6.31;100.00
11190;BME280;5651;50.926;4.718;2023-03-12T06:53:19;100673.38;;;6.28;100.00
11190;BME280;5651;50.926;4.718;2023-03-12T06:55:45;100669.09;;;6.30;100.00
11190;BME280;5651;50.926;4.718;2023-03-12T06:58:11;100673.47;;;6.41;100.00
11190;BME280;5651;50.926;4.718;2023-03-12T07:00:38;100674.38;;;6.43;100.00
11190;BME280;5651;50.926;4.718;2023-03-12T07:03:03;100683.06;;;6.51;100.00
11190;BME280;5651;50.926;4.718;2023-03-12T07:05:30;100683.97;;;6.56;100.00
11190;BME280;5651;50.926;4.718;2023-03-12T07:07:56;100686.59;;;6.61;100.00
11190;BME280;5651;50.926;4.718;2023-03-12T07:10:22;100677.16;;;6.64;100.00
11190;BME280;5651;50.926;4.718;2023-03-12T07:12:48;100683.22;;;6.66;100.00
11190;BME280;5651;50.926;4.718;2023-03-12T07:15:14;100680.66;;;6.73;100.00
11190;BME280;5651;50.926;4.718;2023-03-12T07:17:39;100677.19;;;6.71;100.00
11190;BME280;5651;50.926;4.718;2023-03-12T07:20:06;100687.63;;;6.80;100.00
11190;BME280;5651;50.926;4.718;2023-03-12T07:22:32;100685.16;;;6.95;100.00
11190;BME280;5651;50.926;4.718;2023-03-12T07:24:57;100681.72;;;6.96;100.00
11190;BME280;5651;50.926;4.718;2023-03-12T07:27:23;100692.97;;;6.98;100.00
11190;BME280;5651;50.926;4.718;2023-03-12T07:29:49;100689.56;;;7.07;100.00
11190;BME280;5651;50.926;4.718;2023-03-12T07:32:15;100696.56;;;7.19;100.00
11190;BME280;5651;50.926;4.718;2023-03-12T07:34:40;100687.91;;;7.19;100.00
11190;BME280;5651;50.926;4.718;2023-03-12T07:37:06;100695.75;;;7.29;100.00
11190;BME280;5651;50.926;4.718;2023-03-12T07:39:32;100694.09;;;7.38;100.00
11190;BME280;5651;50.926;4.718;2023-03-12T07:41:58;100701.00;;;7.36;100.00
11190;BME280;5651;50.926;4.718;2023-03-12T07:44:24;100697.66;;;7.54;100.00
11190;BME280;5651;50.926;4.718;2023-03-12T07:46:51;100701.97;;;7.58;100.00
11190;BME280;5651;50.926;4.718;2023-03-12T07:49:17;100704.63;;;7.66;100.00
11190;BME280;5651;50.926;4.718;2023-03-12T07:51:43;100696.88;;;7.75;100.00
11190;BME280;5651;50.926;4.718;2023-03-12T07:54:09;100701.31;;;8.08;100.00
11190;BME280;5651;50.926;4.718;2023-03-12T07:56:35;100710.88;;;8.11;100.00
11190;BME280;5651;50.926;4.718;2023-03-12T07:59:00;100700.50;;;8.22;100.00
11190;BME280;5651;50.926;4.718;2023-03-12T08:01:26;100702.28;;;8.34;100.00
11190;BME280;5651;50.926;4.718;2023-03-12T08:04:00;100701.41;;;8.43;100.00
11190;BME280;5651;50.926;4.718;2023-03-12T08:06:27;100708.38;;;8.57;100.00
11190;BME280;5651;50.926;4.718;2023-03-12T08:08:54;100712.72;;;8.62;100.00
11190;BME280;5651;50.926;4.718;2023-03-12T08:11:20;100720.53;;;8.79;100.00
11190;BME280;5651;50.926;4.718;2023-03-12T08:13:46;100726.59;;;8.84;100.00
11190;BME280;5651;50.926;4.718;2023-03-12T08:16:12;100737.84;;;8.92;100.00
11190;BME280;5651;50.926;4.718;2023-03-12T08:18:39;100738.75;;;8.97;100.00
11190;BME280;5651;50.926;4.718;2023-03-12T08:21:05;100740.47;;;9.00;100.00
11190;BME280;5651;50.926;4.718;2023-03-12T08:23:30;100740.47;;;9.04;100.00
11190;BME280;5651;50.926;4.718;2023-03-12T08:25:57;100733.56;;;9.17;100.00
11190;BME280;5651;50.926;4.718;2023-03-12T08:28:23;100745.66;;;9.18;100.00
11190;BME280;5651;50.926;4.718;2023-03-12T08:30:52;100747.38;;;9.26;100.00
11190;BME280;5651;50.926;4.718;2023-03-12T08:33:19;100749.97;;;9.35;100.00
11190;BME280;5651;50.926;4.718;2023-03-12T08:35:45;100756.03;;;9.34;100.00
11190;BME280;5651;50.926;4.718;2023-03-12T08:38:11;100753.44;;;9.39;100.00
11190;BME280;5651;50.926;4.718;2023-03-12T08:40:37;100758.66;;;9.51;100.00
11190;BME280;5651;50.926;4.718;2023-03-12T08:43:03;100758.63;;;9.54;100.00
11190;BME280;5651;50.926;4.718;2023-03-12T08:45:29;100764.69;;;9.51;100.00
11190;BME280;5651;50.926;4.718;2023-03-12T08:47:55;100762.94;;;9.66;100.00
11190;BME280;5651;50.926;4.718;2023-03-12T08:50:21;100771.59;;;9.77;100.00
11190;BME280;5651;50.926;4.718;2023-03-12T08:52:47;100771.59;;;9.74;100.00
11190;BME280;5651;50.926;4.718;2023-03-12T08:55:14;100775.91;;;9.85;100.00
11190;BME280;5651;50.926;4.718;2023-03-12T08:57:39;100774.16;;;9.90;100.00
11190;BME280;5651;50.926;4.718;2023-03-12T09:00:06;100771.56;;;9.90;100.00
11190;BME280;5651;50.926;4.718;2023-03-12T09:02:36;100775.00;;;9.93;100.00
11190;BME280;5651;50.926;4.718;2023-03-12T09:05:03;100776.69;;;10.02;100.00
11190;BME280;5651;50.926;4.718;2023-03-12T09:07:32;100760.19;;;10.15;100.00
11190;BME280;5651;50.926;4.718;2023-03-12T09:09:58;100769.72;;;10.20;100.00
11190;BME280;5651;50.926;4.718;2023-03-12T09:12:24;100767.09;;;10.23;100.00
11190;BME280;5651;50.926;4.718;2023-03-12T09:14:51;100773.13;;;10.33;100.00
11190;BME280;5651;50.926;4.718;2023-03-12T09:17:17;100767.91;;;10.40;100.00
11190;BME280;5651;50.926;4.718;2023-03-12T09:19:43;100773.03;;;10.56;100.00
11190;BME280;5651;50.926;4.718;2023-03-12T09:22:09;100766.03;;;10.67;100.00
11190;BME280;5651;50.926;4.718;2023-03-12T09:24:35;100764.19;;;10.78;100.00
11190;BME280;5651;50.926;4.718;2023-03-12T09:27:01;100782.41;;;10.86;100.00
11190;BME280;5651;50.926;4.718;2023-03-12T09:29:29;100776.25;;;10.95;100.00
11190;BME280;5651;50.926;4.718;2023-03-12T09:31:55;100778.81;;;11.01;100.00
11190;BME280;5651;50.926;4.718;2023-03-12T09:34:21;100778.72;;;11.14;100.00
11190;BME280;5651;50.926;4.718;2023-03-12T09:36:46;100779.53;;;11.19;100.00
11190;BME280;5651;50.926;4.718;2023-03-12T09:39:12;100778.56;;;11.29;100.00
11190;BME280;5651;50.926;4.718;2023-03-12T09:41:39;100780.31;;;11.30;100.00
11190;BME280;5651;50.926;4.718;2023-03-12T09:44:32;100781.16;;;11.35;100.00
11190;BME280;5651;50.926;4.718;2023-03-12T09:47:08;100784.50;;;11.47;100.00
11190;BME280;5651;50.926;4.718;2023-03-12T09:49:44;100799.25;;;11.52;100.00
11190;BME280;5651;50.926;4.718;2023-03-12T09:52:31;100781.72;;;11.64;100.00
11190;BME280;5651;50.926;4.718;2023-03-12T09:57:27;100787.59;;;11.86;100.00
11190;BME280;5651;50.926;4.718;2023-03-12T09:59:55;100785.81;;;11.89;100.00
11190;BME280;5651;50.926;4.718;2023-03-12T10:05:08;100784.69;;;12.14;100.00
11190;BME280;5651;50.926;4.718;2023-03-12T10:07:42;100796.03;;;12.13;100.00
11190;BME280;5651;50.926;4.718;2023-03-12T10:21:11;100799.91;;;12.52;100.00
11190;BME280;5651;50.926;4.718;2023-03-12T10:24:06;100795.19;;;12.78;100.00
11190;BME280;5651;50.926;4.718;2023-03-12T10:26:52;100788.88;;;12.91;100.00
11190;BME280;5651;50.926;4.718;2023-03-12T10:31:56;100791.25;;;13.07;100.00
11190;BME280;5651;50.926;4.718;2023-03-12T10:34:39;100785.25;;;13.00;100.00
11190;BME280;5651;50.926;4.718;2023-03-12T10:37:35;100786.31;;;12.90;100.00
11190;BME280;5651;50.926;4.718;2023-03-12T10:40:03;100778.47;;;12.87;100.00
11190;BME280;5651;50.926;4.718;2023-03-12T10:42:30;100789.00;;;12.82;98.01
11190;BME280;5651;50.926;4.718;2023-03-12T10:45:15;100784.66;;;12.82;98.91
11190;BME280;5651;50.926;4.718;2023-03-12T10:47:43;100792.50;;;12.81;97.78
11190;BME280;5651;50.926;4.718;2023-03-12T10:50:13;100798.63;;;12.81;98.98
11190;BME280;5651;50.926;4.718;2023-03-12T10:52:40;100803.84;;;12.81;98.05
11190;BME280;5651;50.926;4.718;2023-03-12T10:55:19;100810.06;;;12.73;98.59
11190;BME280;5651;50.926;4.718;2023-03-12T10:57:45;100802.91;;;12.86;98.54
11190;BME280;5651;50.926;4.718;2023-03-12T11:00:23;100808.03;;;12.93;97.68
11190;BME280;5651;50.926;4.718;2023-03-12T11:05:26;100800.88;;;13.06;96.32
11190;BME280;5651;50.926;4.718;2023-03-12T11:07:53;100811.97;;;13.19;96.96
11190;BME280;5651;50.926;4.718;2023-03-12T11:10:22;100808.66;;;13.09;96.32
11190;BME280;5651;50.926;4.718;2023-03-12T11:13:05;100817.16;;;13.24;94.38
11190;BME280;5651;50.926;4.718;2023-03-12T11:15:45;100820.63;;;13.26;94.94
11190;BME280;5651;50.926;4.718;2023-03-12T11:20:48;100803.72;;;13.47;92.66
11190;BME280;5651;50.926;4.718;2023-03-12T11:23:16;100807.31;;;13.41;94.57
11190;BME280;5651;50.926;4.718;2023-03-12T11:25:51;100817.63;;;13.49;93.31
11190;BME280;5651;50.926;4.718;2023-03-12T11:28:22;100819.44;;;13.47;93.70
11190;BME280;5651;50.926;4.718;2023-03-12T11:30:51;100807.84;;;13.60;91.07
11190;BME280;5651;50.926;4.718;2023-03-12T11:33:17;100801.72;;;13.60;94.08
11190;BME280;5651;50.926;4.718;2023-03-12T11:41:54;100807.03;;;13.57;90.82
11190;BME280;5651;50.926;4.718;2023-03-12T12:00:16;100794.88;;;13.53;91.43
11190;BME280;5651;50.926;4.718;2023-03-12T12:16:38;100789.00;;;13.40;88.44
11190;BME280;5651;50.926;4.718;2023-03-12T12:27:30;100781.09;;;13.43;87.71
11190;BME280;5651;50.926;4.718;2023-03-12T12:35:40;100787.19;;;13.45;87.65
11190;BME280;5651;50.926;4.718;2023-03-12T12:40:47;100781.97;;;13.42;87.42
11190;BME280;5651;50.926;4.718;2023-03-12T12:45:45;100774.66;;;13.09;86.24
11190;BME280;5651;50.926;4.718;2023-03-12T12:50:48;100770.84;;;13.29;85.73
11190;BME280;5651;50.926;4.718;2023-03-12T12:53:23;100767.31;;;13.31;83.82
11190;BME280;5651;50.926;4.718;2023-03-12T13:01:51;100755.31;;;13.70;77.99
11190;BME280;5651;50.926;4.718;2023-03-12T13:04:26;100739.31;;;13.85;79.11
11190;BME280;5651;50.926;4.718;2023-03-12T13:07:01;100752.91;;;14.03;80.01
11190;BME280;5651;50.926;4.718;2023-03-12T13:12:30;100759.94;;;14.01;75.45
11190;BME280;5651;50.926;4.718;2023-03-12T13:14:59;100751.97;;;14.07;75.71
11190;BME280;5651;50.926;4.718;2023-03-12T13:17:33;100756.69;;;14.30;76.94
11190;BME280;5651;50.926;4.718;2023-03-12T13:23:02;100745.38;;;14.30;76.60
11190;BME280;5651;50.926;4.718;2023-03-12T13:28:35;100745.81;;;14.49;75.55
11190;BME280;5651;50.926;4.718;2023-03-12T13:36:43;100745.81;;;14.49;75.01
11190;BME280;5651;50.926;4.718;2023-03-12T13:44:23;100745.81;;;14.49;73.50
11190;BME280;5651;50.926;4.718;2023-03-12T13:49:44;100732.41;;;14.23;73.73
11190;BME280;5651;50.926;4.718;2023-03-12T13:52:49;100737.25;;;14.40;74.01
11190;BME280;5651;50.926;4.718;2023-03-12T13:55:25;100736.31;;;14.43;72.72
11190;BME280;5651;50.926;4.718;2023-03-12T13:58:12;100740.63;;;14.46;74.07
11190;BME280;5651;50.926;4.718;2023-03-12T14:00:54;100761.69;;;14.42;73.56
11190;BME280;5651;50.926;4.718;2023-03-12T14:03:29;100758.00;;;14.51;73.77
11190;BME280;5651;50.926;4.718;2023-03-12T14:05:59;100755.13;;;14.62;72.71
11190;BME280;5651;50.926;4.718;2023-03-12T14:17:00;100753.03;;;14.78;70.41
11190;BME280;5651;50.926;4.718;2023-03-12T14:19:28;100753.13;;;14.75;73.90
11190;BME280;5651;50.926;4.718;2023-03-12T14:21:58;100759.38;;;14.69;71.65
11190;BME280;5651;50.926;4.718;2023-03-12T14:24:40;100764.88;;;14.55;71.88
11190;BME280;5651;50.926;4.718;2023-03-12T14:27:14;100749.69;;;14.32;72.08
11190;BME280;5651;50.926;4.718;2023-03-12T14:30:01;100756.13;;;14.16;73.64
11190;BME280;5651;50.926;4.718;2023-03-12T14:32:30;100756.53;;;13.97;73.27
11190;BME280;5651;50.926;4.718;2023-03-12T14:35:07;100764.63;;;13.85;73.09
11190;BME280;5651;50.926;4.718;2023-03-12T14:38:10;100775.41;;;13.68;72.75
11190;BME280;5651;50.926;4.718;2023-03-12T14:43:27;100766.72;;;13.66;73.84
11190;BME280;5651;50.926;4.718;2023-03-12T14:46:00;100752.88;;;13.60;74.35
11190;BME280;5651;50.926;4.718;2023-03-12T14:48:33;100761.66;;;13.56;74.94
11190;BME280;5651;50.926;4.718;2023-03-12T14:51:00;100760.84;;;13.53;75.26
11190;BME280;5651;50.926;4.718;2023-03-12T14:53:32;100766.03;;;13.56;74.34
11190;BME280;5651;50.926;4.718;2023-03-12T14:55:59;100767.06;;;13.47;76.21
11190;BME280;5651;50.926;4.718;2023-03-12T14:58:25;100774.94;;;13.47;74.72
11190;BME280;5651;50.926;4.718;2023-03-12T15:01:12;100800.38;;;13.39;74.80
11190;BME280;5651;50.926;4.718;2023-03-12T15:03:43;100782.78;;;13.45;75.57
11190;BME280;5651;50.926;4.718;2023-03-12T15:06:23;100772.13;;;13.58;74.90
11190;BME280;5651;50.926;4.718;2023-03-12T15:08:52;100771.06;;;13.67;75.59
11190;BME280;5651;50.926;4.718;2023-03-12T15:11:23;100763.72;;;13.86;76.59
11190;BME280;5651;50.926;4.718;2023-03-12T15:13:51;100771.41;;;13.95;75.40
11190;BME280;5651;50.926;4.718;2023-03-12T15:16:18;100778.38;;;13.94;73.86